AirNav   Air Wisconsin Up To $57,000 Bonus
 
 1140 users online  

36MN Backstrom Airport
New Trier, Minnesota, USA

GOING TO NEW TRIER?


FAA INFORMATION EFFECTIVE 15 JULY 2021

Location

FAA Identifier: 36MN
Lat/Long: 44-34-59.0000N 092-56-38.0000W
44-34.983333N 092-56.633333W
44.5830556,-92.9438889
(estimated)
Elevation: 980 ft. / 299 m
From city: 1 mile SW of NEW TRIER, MN
Time zone: UTC -5 (UTC -6 during Standard Time)
Zip code: 55031

Airport Operations

Airport use: Private use. Permission required prior to landing
Activation date: 10/2015
Control tower: no
ARTCC: MINNEAPOLIS CENTER
FSS: PRINCETON FLIGHT SERVICE STATION
Attendance: UNATNDD
Segmented circle: no

Airport Communications

WX AWOS-3 at SYN (7 nm SW): 119.35 (507-664-3806)
WX AWOS-3 at LVN (12 nm W): 118.0 (952-469-5850)
WX AWOS-3 at SGS (17 nm N): 119.425 (651-457-8120)
WX AWOS-3 at RGK (20 nm E): 119.25 (715-594-3763)

Nearby radio navigation aids

VOR radial/distance  VOR name  Freq  Var
FGTr100/10.6FARMINGTON VORTAC115.7006E
MSPr144/22.6MINNEAPOLIS VOR/DME115.3002E
FCMr123/25.8FLYING CLOUD VOR/DME117.7001E
FOWr037/29.2HALFWAY VOR/DME111.2002E
GEPr146/38.4GOPHER VORTAC117.3006E

 
NDB name  Hdg/Dist  Freq  Var  ID
REGUE264/12.727402ERG .-. --.

Airport Services

Runway Information

Runway 18/36

Dimensions: 2500 x 75 ft. / 762 x 23 m
Surface: turf
RUNWAY 18  RUNWAY 36
Traffic pattern: leftleft
Obstructions: 30 ft. pline40 ft. tree

Airport Ownership and Management from official FAA records

Ownership: Privately-owned
Owner: NATHAN BACKSTROM
8060 250TH STREET E
HAMPTON, MN 55031
Phone 507-263-0148
Manager: NATHAN BACKSTROM
8060 250TH STREET E
HAMPTON, MN 55031
Phone 507-263-0148

Additional Remarks

DO NOT CHART PER MINNESOTA DEPARTMENT OF TRANSPORTATION
FOR CD CTC MINNEAPOLIS ARTCC AT 651-463-5588.

Instrument Procedures

There are no published instrument procedures at 36MN.

Some nearby airports with instrument procedures:

KLVN - Airlake Airport (12 nm W)
KSGS - South St Paul Municipal Airport-Richard E Fleming Field (17 nm N)
KRGK - Red Wing Regional Airport (20 nm E)
KMSP - Minneapolis-St Paul International/Wold-Chamberlain Airport (21 nm NW)
KSTP - St Paul Downtown Airport Holman Field (22 nm N)
 
Loc | Ops | Rwys | IFR | FBO | Links
Com | Nav | Svcs | Stats | Notes
Aerial photo
No photo
 
Airport distance calculator
Flying to Backstrom Airport? Find the distance to fly.

From to 36MN

Sunrise and sunset
Times for 28-Jul-2021
 Local
(UTC-5)
 Zulu
(UTC)
Morning civil twilight05:2110:21
Sunrise05:5510:55
Sunset20:4201:42
Evening civil twilight21:1502:15

Current date and time
Zulu (UTC)  28-Jul-2021 23:13:21
Local (UTC-5)  28-Jul-2021 18:13:21
 
METAR
KSYN 
7nm SW 
282255Z AUTO 19008KT 10SM CLR 30/24 A2987 RMK AO2 T02960242
KLVN 
12nm W 
282255Z AUTO 18004KT 10SM CLR 29/23 A2987 RMK AO2
KSGS 
18nm NW 
282255Z AUTO 19005G08KT 10SM CLR 31/22 A2986 RMK AO2 T03120223
TAF
NOTAMs
Click for the latest NOTAMs
NOTAMs are issued by the DoD/FAA and will open in a separate window not controlled by AirNav.

 

 
 

Would you like to see your business listed on this page?

 If your business provides an interesting product or service to pilots, flight crews, aircraft, or users of the Backstrom Airport, you should consider listing it here.  To start the listing process, click on the button below
 
Add a business
 

Other Pages about Backstrom Airport

Update a link
 
Copyright © AirNav, LLC. All rights reserved. Privacy Policy  Contact